createdAt,value
2023-05-14T00:02:08.642Z,13.43
2023-05-14T00:04:36.277Z,13.43
2023-05-14T00:07:03.933Z,13.37
2023-05-14T00:09:31.468Z,13.34
2023-05-14T00:12:00.359Z,13.36
2023-05-14T00:14:27.943Z,13.37
2023-05-14T00:16:55.773Z,13.34
2023-05-14T00:19:23.607Z,13.37
2023-05-14T00:21:51.151Z,13.26
2023-05-14T00:24:18.716Z,13.27
2023-05-14T00:26:46.326Z,13.30
2023-05-14T00:29:15.251Z,13.12
2023-05-14T00:31:42.868Z,13.18
2023-05-14T00:34:10.676Z,13.13
2023-05-14T00:36:38.298Z,13.07
2023-05-14T00:39:05.929Z,13.05
2023-05-14T00:41:34.040Z,12.94
2023-05-14T00:44:01.715Z,12.89
2023-05-14T00:46:30.761Z,12.84
2023-05-14T00:48:59.333Z,12.79
2023-05-14T00:51:27.115Z,12.77
2023-05-14T00:53:55.721Z,12.75
2023-05-14T00:56:23.521Z,12.76
2023-05-14T00:58:51.125Z,12.76
2023-05-14T01:01:18.724Z,12.63
2023-05-14T01:03:48.836Z,12.48
2023-05-14T01:06:22.546Z,12.44
2023-05-14T01:09:00.511Z,12.44
2023-05-14T01:11:32.920Z,12.20
2023-05-14T01:14:08.950Z,12.14
2023-05-14T01:16:39.821Z,12.14
2023-05-14T01:19:19.545Z,12.17
2023-05-14T01:21:48.493Z,12.24
2023-05-14T01:24:16.042Z,12.24
2023-05-14T01:26:43.700Z,12.20
2023-05-14T01:29:20.295Z,12.12
2023-05-14T01:31:49.778Z,12.12
2023-05-14T01:34:20.861Z,12.07
2023-05-14T01:36:51.449Z,12.03
2023-05-14T01:39:20.111Z,12.08
2023-05-14T01:41:48.862Z,12.14
2023-05-14T01:44:16.625Z,12.13
2023-05-14T01:46:44.164Z,12.24
2023-05-14T01:49:11.720Z,12.24
2023-05-14T01:51:39.311Z,12.25
2023-05-14T01:54:08.221Z,12.17
2023-05-14T01:56:35.788Z,12.23
2023-05-14T01:59:03.376Z,12.24
2023-05-14T02:01:31.677Z,12.18
2023-05-14T02:03:59.588Z,12.11
2023-05-14T02:06:27.523Z,12.03
2023-05-14T02:08:56.831Z,11.83
2023-05-14T02:11:26.134Z,11.88
2023-05-14T02:13:53.647Z,11.78
2023-05-14T02:16:21.231Z,11.77
2023-05-14T02:18:48.830Z,11.78
2023-05-14T02:21:16.462Z,11.65
2023-05-14T02:23:44.260Z,11.73
2023-05-14T02:26:13.212Z,11.70
2023-05-14T02:28:42.045Z,11.70
2023-05-14T02:31:09.685Z,11.65
2023-05-14T02:33:37.397Z,11.73
2023-05-14T02:36:05.531Z,11.72
2023-05-14T02:38:33.199Z,11.72
2023-05-14T02:41:00.730Z,11.71
2023-05-14T02:43:28.335Z,11.53
2023-05-14T02:45:57.264Z,11.55
2023-05-14T02:48:24.829Z,11.54
2023-05-14T02:50:52.380Z,11.46
2023-05-14T02:53:20.034Z,11.43
2023-05-14T02:55:47.605Z,11.40
2023-05-14T02:58:15.241Z,11.51
2023-05-14T03:00:42.841Z,11.55
2023-05-14T03:03:12.442Z,11.56
2023-05-14T03:05:40.426Z,11.49
2023-05-14T03:08:07.985Z,11.40
2023-05-14T03:10:35.531Z,11.39
2023-05-14T03:13:03.176Z,11.40
2023-05-14T03:15:30.773Z,11.34
2023-05-14T03:17:58.367Z,11.36
2023-05-14T03:20:27.710Z,11.35
2023-05-14T03:22:56.025Z,11.20
2023-05-14T03:25:23.572Z,11.17
2023-05-14T03:27:52.356Z,11.19
2023-05-14T03:30:20.169Z,11.28
2023-05-14T03:32:49.480Z,11.31
2023-05-14T03:35:17.329Z,11.28
2023-05-14T03:37:46.233Z,11.18
2023-05-14T03:40:13.826Z,11.16
2023-05-14T03:42:41.452Z,11.13
2023-05-14T03:45:11.693Z,11.15
2023-05-14T03:47:39.340Z,11.06
2023-05-14T03:50:08.606Z,10.96
2023-05-14T03:52:36.359Z,11.02
2023-05-14T03:55:05.839Z,10.89
2023-05-14T03:57:33.445Z,10.87
2023-05-14T04:00:01.029Z,10.92
2023-05-14T04:02:28.732Z,10.97
2023-05-14T04:04:56.578Z,10.98
2023-05-14T04:07:24.164Z,10.91
2023-05-14T04:09:52.044Z,10.96
2023-05-14T04:12:20.987Z,11.02
2023-05-14T04:14:48.565Z,11.01
2023-05-14T04:17:16.058Z,11.11
2023-05-14T04:19:43.613Z,11.21
2023-05-14T04:22:11.173Z,11.25
2023-05-14T04:24:38.666Z,11.15
2023-05-14T04:27:06.848Z,11.26
2023-05-14T04:29:35.698Z,11.31
2023-05-14T04:32:03.236Z,11.41
2023-05-14T04:34:30.782Z,11.45
2023-05-14T04:36:58.319Z,11.55
2023-05-14T04:39:25.863Z,11.67
2023-05-14T04:41:53.475Z,11.73
2023-05-14T04:44:21.016Z,11.77
2023-05-14T04:46:49.913Z,11.78
2023-05-14T04:49:17.429Z,11.93
2023-05-14T04:51:44.964Z,12.07
2023-05-14T04:54:12.553Z,12.15
2023-05-14T04:56:40.199Z,12.21
2023-05-14T04:59:07.779Z,12.36
2023-05-14T05:01:35.496Z,12.35
2023-05-14T05:04:04.501Z,12.48
2023-05-14T05:06:32.357Z,12.61
2023-05-14T05:09:01.937Z,12.72
2023-05-14T05:11:29.885Z,12.87
2023-05-14T05:13:57.455Z,12.97
2023-05-14T05:16:24.980Z,13.08
2023-05-14T05:18:52.652Z,13.19
2023-05-14T05:21:21.619Z,13.26
2023-05-14T05:23:49.191Z,13.40
2023-05-14T05:26:16.740Z,13.55
2023-05-14T05:28:44.308Z,13.69
2023-05-14T05:31:11.876Z,13.79
2023-05-14T05:33:40.402Z,13.85
2023-05-14T05:36:08.571Z,13.95
2023-05-14T05:38:37.568Z,14.05
2023-05-14T05:41:05.104Z,14.17
2023-05-14T05:43:33.531Z,14.29
2023-05-14T05:46:01.509Z,14.38
2023-05-14T05:48:29.201Z,14.46
2023-05-14T05:50:56.758Z,14.53
2023-05-14T05:53:24.461Z,14.63
2023-05-14T05:55:53.368Z,14.70
2023-05-14T05:58:21.054Z,14.79
2023-05-14T06:00:48.593Z,14.86
2023-05-14T06:03:16.290Z,14.93
2023-05-14T06:05:43.966Z,15.07
2023-05-14T06:08:11.540Z,15.10
2023-05-14T06:10:39.117Z,15.26
2023-05-14T06:13:07.987Z,15.34
2023-05-14T06:15:35.583Z,15.39
2023-05-14T06:18:03.175Z,15.40
2023-05-14T06:20:31.051Z,15.44
2023-05-14T06:22:59.220Z,15.61
2023-05-14T06:25:26.726Z,15.77
2023-05-14T06:27:54.284Z,15.84
2023-05-14T06:30:23.536Z,15.95
2023-05-14T06:32:51.634Z,15.96
2023-05-14T06:35:19.444Z,16.20
2023-05-14T06:37:47.024Z,16.23
2023-05-14T06:40:16.046Z,16.11
2023-05-14T06:42:43.550Z,16.29
2023-05-14T06:45:11.930Z,16.52
2023-05-14T06:47:41.161Z,16.69
2023-05-14T06:50:10.831Z,16.84
2023-05-14T06:52:39.152Z,16.92
2023-05-14T06:55:07.588Z,16.97
2023-05-14T06:57:35.120Z,16.99
2023-05-14T07:00:03.676Z,17.18
2023-05-14T07:02:31.559Z,17.22
2023-05-14T07:05:00.688Z,17.25
2023-05-14T07:07:28.204Z,17.48
2023-05-14T07:09:55.729Z,17.60
2023-05-14T07:12:23.247Z,17.76
2023-05-14T07:14:51.132Z,17.82
2023-05-14T07:17:18.748Z,17.83
2023-05-14T07:19:47.110Z,17.79
2023-05-14T07:22:16.001Z,18.00
2023-05-14T07:24:43.497Z,18.08
2023-05-14T07:27:12.326Z,18.13
2023-05-14T07:29:39.926Z,18.26
2023-05-14T07:32:07.724Z,18.55
2023-05-14T07:34:35.324Z,18.75
2023-05-14T07:37:03.428Z,18.73
2023-05-14T07:39:32.309Z,19.00
2023-05-14T07:41:59.796Z,19.09
2023-05-14T07:44:27.339Z,18.92
2023-05-14T07:46:54.950Z,18.75
2023-05-14T07:49:22.522Z,18.79
2023-05-14T07:51:50.087Z,18.82
2023-05-14T07:54:17.760Z,18.93
2023-05-14T07:56:46.707Z,18.98
2023-05-14T07:59:14.289Z,18.82
2023-05-14T08:01:41.894Z,18.76
2023-05-14T08:04:11.517Z,18.95
2023-05-14T08:06:39.105Z,19.05
2023-05-14T08:09:06.674Z,19.01
2023-05-14T08:11:34.294Z,19.37
2023-05-14T08:14:03.144Z,19.32
2023-05-14T08:16:30.794Z,19.63
2023-05-14T08:18:58.442Z,19.84
2023-05-14T08:21:26.237Z,20.10
2023-05-14T08:23:53.793Z,20.10
2023-05-14T08:26:21.864Z,20.14
2023-05-14T08:28:49.354Z,20.18
2023-05-14T08:31:18.268Z,20.20
2023-05-14T08:33:45.921Z,19.90
2023-05-14T08:36:13.484Z,20.15
2023-05-14T08:38:41.996Z,20.28
2023-05-14T08:41:11.484Z,20.46
2023-05-14T08:43:45.167Z,20.45
2023-05-14T08:46:15.911Z,20.57
2023-05-14T08:48:52.744Z,20.69
2023-05-14T08:51:20.443Z,20.86
2023-05-14T08:53:49.046Z,20.88
2023-05-14T08:56:19.112Z,20.97
2023-05-14T08:58:46.784Z,20.99
2023-05-14T09:01:14.370Z,20.98
2023-05-14T09:03:42.458Z,21.06
2023-05-14T09:06:13.491Z,21.30
2023-05-14T09:08:41.167Z,21.25
2023-05-14T09:11:08.686Z,21.30
2023-05-14T09:13:38.749Z,21.43
2023-05-14T09:16:07.135Z,21.34
2023-05-14T09:18:37.042Z,21.26
2023-05-14T09:21:05.540Z,21.40
2023-05-14T09:23:35.251Z,21.54
2023-05-14T09:26:05.767Z,21.18
2023-05-14T09:28:33.326Z,21.26
2023-05-14T09:31:00.885Z,21.61
2023-05-14T09:33:29.030Z,21.84
2023-05-14T09:35:59.794Z,21.73
2023-05-14T09:38:30.155Z,22.04
2023-05-14T09:40:59.647Z,21.97
2023-05-14T09:43:27.657Z,22.34
2023-05-14T09:45:55.364Z,22.30
2023-05-14T09:48:22.920Z,22.21
2023-05-14T09:50:51.479Z,22.73
2023-05-14T09:53:19.624Z,22.82
2023-05-14T09:55:47.422Z,22.44
2023-05-14T09:58:16.373Z,22.66
2023-05-14T10:00:46.080Z,23.22
2023-05-14T10:03:17.888Z,22.13
2023-05-14T10:05:49.949Z,21.57
2023-05-14T10:08:25.199Z,21.81
2023-05-14T10:10:54.611Z,22.45
2023-05-14T10:13:28.205Z,21.97
2023-05-14T10:16:01.494Z,22.15
2023-05-14T10:18:32.359Z,22.17
2023-05-14T10:21:05.640Z,22.17
2023-05-14T10:23:33.303Z,22.30
2023-05-14T10:26:01.494Z,22.53
2023-05-14T10:28:30.978Z,22.59
2023-05-14T10:30:58.584Z,22.74
2023-05-14T10:33:26.134Z,21.96
2023-05-14T10:36:00.980Z,22.25
2023-05-14T10:38:29.509Z,22.20
2023-05-14T10:40:59.657Z,22.09
2023-05-14T10:43:29.254Z,21.65
2023-05-14T10:46:00.739Z,21.73
2023-05-14T10:48:28.438Z,21.72
2023-05-14T10:50:57.217Z,21.55
2023-05-14T10:53:33.020Z,21.51
2023-05-14T10:56:04.402Z,21.37
2023-05-14T10:58:33.726Z,21.70
2023-05-14T11:01:02.721Z,21.90
2023-05-14T11:03:30.839Z,22.08
2023-05-14T11:05:58.517Z,22.44
2023-05-14T11:08:29.397Z,23.01
2023-05-14T11:10:58.013Z,22.84
2023-05-14T11:13:27.055Z,22.82
2023-05-14T11:15:54.816Z,22.48
2023-05-14T11:18:31.190Z,22.82
2023-05-14T11:21:01.979Z,22.57
2023-05-14T11:23:30.125Z,22.27
2023-05-14T11:25:57.980Z,22.08
2023-05-14T11:28:27.377Z,21.90
2023-05-14T11:30:55.147Z,21.76
2023-05-14T11:33:22.846Z,21.33
2023-05-14T11:35:51.911Z,21.26
2023-05-14T11:38:21.117Z,21.21
2023-05-14T11:40:53.530Z,21.39
2023-05-14T11:43:23.542Z,21.29
2023-05-14T11:45:51.682Z,21.49
2023-05-14T11:48:19.493Z,21.38
2023-05-14T11:50:48.832Z,21.28
2023-05-14T11:53:20.833Z,21.31
2023-05-14T11:55:48.634Z,21.35
2023-05-14T11:58:18.781Z,21.19
2023-05-14T12:00:47.351Z,21.35
2023-05-14T12:03:15.110Z,21.03
2023-05-14T12:05:55.568Z,21.21
2023-05-14T12:08:28.063Z,21.27
2023-05-14T12:10:55.800Z,21.36
2023-05-14T12:13:26.368Z,21.40
2023-05-14T12:15:56.383Z,21.65
2023-05-14T12:18:25.930Z,21.65
2023-05-14T12:20:53.724Z,21.58
2023-05-14T12:23:27.589Z,21.79
2023-05-14T12:25:55.209Z,22.65
2023-05-14T12:28:24.264Z,22.28
2023-05-14T12:30:57.729Z,22.38
2023-05-14T12:33:26.444Z,22.50
2023-05-14T12:35:58.852Z,22.66
2023-05-14T12:38:29.427Z,22.71
2023-05-14T12:40:56.933Z,23.00
2023-05-14T12:43:24.572Z,22.99
2023-05-14T12:45:52.054Z,23.20
2023-05-14T12:48:19.592Z,23.54
2023-05-14T12:50:48.479Z,23.62
2023-05-14T12:53:16.692Z,22.70
2023-05-14T12:55:45.563Z,22.64
2023-05-14T12:58:13.138Z,23.24
2023-05-14T13:00:40.700Z,22.58
2023-05-14T13:03:08.238Z,22.37
2023-05-14T13:05:36.204Z,22.74
2023-05-14T13:08:03.974Z,22.78
2023-05-14T13:10:31.504Z,22.35
2023-05-14T13:13:01.937Z,22.49
2023-05-14T13:15:31.441Z,22.11
2023-05-14T13:17:59.073Z,22.08
2023-05-14T13:20:27.412Z,21.97
2023-05-14T13:22:55.033Z,21.87
2023-05-14T13:25:22.999Z,21.64
2023-05-14T13:27:51.583Z,21.75
2023-05-14T13:30:20.672Z,21.86
2023-05-14T13:32:48.414Z,22.02
2023-05-14T13:35:16.139Z,22.03
2023-05-14T13:37:44.339Z,22.06
2023-05-14T13:40:12.998Z,22.15
2023-05-14T13:42:40.667Z,22.11
2023-05-14T13:45:09.286Z,22.14
2023-05-14T13:47:39.388Z,22.05
2023-05-14T13:50:08.562Z,22.04
2023-05-14T13:52:36.116Z,21.95
2023-05-14T13:55:03.761Z,21.32
2023-05-14T13:57:31.277Z,21.08
2023-05-14T13:59:58.803Z,20.56
2023-05-14T14:02:26.443Z,20.36
2023-05-14T14:04:55.480Z,19.83
2023-05-14T14:07:23.067Z,19.48
2023-05-14T14:09:50.569Z,19.75
2023-05-14T14:12:18.212Z,20.04
2023-05-14T14:14:45.907Z,20.24
2023-05-14T14:17:13.564Z,20.41
2023-05-14T14:19:41.285Z,20.59
2023-05-14T14:22:10.137Z,20.63
2023-05-14T14:24:37.661Z,20.78
2023-05-14T14:27:05.850Z,21.00
2023-05-14T14:29:34.319Z,21.16
2023-05-14T14:32:01.956Z,21.14
2023-05-14T14:34:29.606Z,21.20
2023-05-14T14:36:57.162Z,21.28
2023-05-14T14:39:26.486Z,21.31
2023-05-14T14:41:54.080Z,21.24
2023-05-14T14:44:21.664Z,21.35
2023-05-14T14:46:49.194Z,21.34
2023-05-14T14:49:16.727Z,21.36
2023-05-14T14:51:44.322Z,21.40
2023-05-14T14:54:12.035Z,21.48
2023-05-14T14:56:41.132Z,21.50
2023-05-14T14:59:08.713Z,21.55
2023-05-14T15:01:36.404Z,21.60
2023-05-14T15:04:04.016Z,21.36
2023-05-14T15:06:31.563Z,21.43
2023-05-14T15:08:59.522Z,21.32
2023-05-14T15:11:27.247Z,21.19
2023-05-14T15:13:56.210Z,21.23
2023-05-14T15:16:23.957Z,21.27
2023-05-14T15:18:51.506Z,21.24
2023-05-14T15:21:19.082Z,21.28
2023-05-14T15:23:46.778Z,21.29
2023-05-14T15:26:14.486Z,21.17
2023-05-14T15:28:42.020Z,21.10
2023-05-14T15:31:11.142Z,21.11
2023-05-14T15:33:38.910Z,21.26
2023-05-14T15:36:06.957Z,21.50
2023-05-14T15:38:34.665Z,21.46
2023-05-14T15:41:02.321Z,21.37
2023-05-14T15:43:29.863Z,21.33
2023-05-14T15:45:57.546Z,21.46
2023-05-14T15:48:26.620Z,21.33
2023-05-14T15:50:54.248Z,21.61
2023-05-14T15:53:21.883Z,21.50
2023-05-14T15:55:50.602Z,21.21
2023-05-14T15:58:18.132Z,21.11
2023-05-14T16:00:45.696Z,21.30
2023-05-14T16:03:13.352Z,21.16
2023-05-14T16:05:42.694Z,21.16
2023-05-14T16:08:10.290Z,21.21
2023-05-14T16:10:37.909Z,21.30
2023-05-14T16:13:05.509Z,21.34
2023-05-14T16:15:33.097Z,21.07
2023-05-14T16:18:01.158Z,21.38
2023-05-14T16:20:28.803Z,21.51
2023-05-14T16:22:57.883Z,21.84
2023-05-14T16:25:25.427Z,21.91
2023-05-14T16:27:53.001Z,21.60
2023-05-14T16:30:20.540Z,21.76
2023-05-14T16:32:49.411Z,21.81
2023-05-14T16:35:17.549Z,21.89
2023-05-14T16:37:45.269Z,21.86
2023-05-14T16:40:16.027Z,21.89
2023-05-14T16:42:43.568Z,21.72
2023-05-14T16:45:12.154Z,21.58
2023-05-14T16:47:39.749Z,21.60
2023-05-14T16:50:08.508Z,21.28
2023-05-14T16:52:36.046Z,21.32
2023-05-14T16:55:03.594Z,21.30
2023-05-14T16:57:32.469Z,21.54
2023-05-14T17:00:00.048Z,21.75
2023-05-14T17:02:27.660Z,21.74
2023-05-14T17:04:55.304Z,21.56
2023-05-14T17:07:22.933Z,21.57
2023-05-14T17:09:50.475Z,21.65
2023-05-14T17:12:17.968Z,21.65
2023-05-14T17:14:46.806Z,21.56
2023-05-14T17:17:14.313Z,21.75
2023-05-14T17:19:42.287Z,21.70
2023-05-14T17:22:09.845Z,21.58
2023-05-14T17:24:38.952Z,21.66
2023-05-14T17:27:07.212Z,21.16
2023-05-14T17:29:34.771Z,21.07
2023-05-14T17:32:04.751Z,21.41
2023-05-14T17:34:32.312Z,21.27
2023-05-14T17:37:00.787Z,21.45
2023-05-14T17:39:29.020Z,21.87
2023-05-14T17:41:56.525Z,22.12
2023-05-14T17:44:24.094Z,21.85
2023-05-14T17:46:51.778Z,21.94
2023-05-14T17:49:20.738Z,22.23
2023-05-14T17:51:48.539Z,22.18
2023-05-14T17:54:16.181Z,22.52
2023-05-14T17:56:43.999Z,22.71
2023-05-14T17:59:11.515Z,22.84
2023-05-14T18:01:39.072Z,22.94
2023-05-14T18:04:06.828Z,23.13
2023-05-14T18:06:35.806Z,23.16
2023-05-14T18:09:03.721Z,23.02
2023-05-14T18:11:33.734Z,23.17
2023-05-14T18:14:02.011Z,23.16
2023-05-14T18:16:30.073Z,23.09
2023-05-14T18:18:57.686Z,22.90
2023-05-14T18:21:25.257Z,22.80
2023-05-14T18:23:54.203Z,22.53
2023-05-14T18:26:23.070Z,21.93
2023-05-14T18:28:50.633Z,21.50
2023-05-14T18:31:18.176Z,21.06
2023-05-14T18:33:45.814Z,20.66
2023-05-14T18:36:13.476Z,20.45
2023-05-14T18:38:41.813Z,19.78
2023-05-14T18:41:10.767Z,19.79
2023-05-14T18:43:38.267Z,19.69
2023-05-14T18:46:05.968Z,19.62
2023-05-14T18:48:33.885Z,19.48
2023-05-14T18:51:01.432Z,19.40
2023-05-14T18:53:29.278Z,19.27
2023-05-14T18:55:56.817Z,19.19
2023-05-14T18:58:25.693Z,19.08
2023-05-14T19:00:53.345Z,19.01
2023-05-14T19:03:20.977Z,18.94
2023-05-14T19:05:50.471Z,18.75
2023-05-14T19:08:18.196Z,18.75
2023-05-14T19:10:45.707Z,18.60
2023-05-14T19:13:13.212Z,18.54
2023-05-14T19:15:44.849Z,18.45
2023-05-14T19:18:13.803Z,18.42
2023-05-14T19:20:42.170Z,18.32
2023-05-14T19:23:09.686Z,18.24
2023-05-14T19:25:37.261Z,18.16
2023-05-14T19:28:05.831Z,18.19
2023-05-14T19:30:33.406Z,18.01
2023-05-14T19:33:02.412Z,17.96
2023-05-14T19:35:30.134Z,17.92
2023-05-14T19:37:57.712Z,17.73
2023-05-14T19:40:25.249Z,17.68
2023-05-14T19:42:53.033Z,17.64
2023-05-14T19:45:20.574Z,17.56
2023-05-14T19:47:48.366Z,17.54
2023-05-14T19:50:17.490Z,17.50
2023-05-14T19:52:45.021Z,17.37
2023-05-14T19:55:12.559Z,17.27
2023-05-14T19:57:40.113Z,17.19
2023-05-14T20:00:10.450Z,17.13
2023-05-14T20:02:41.924Z,17.13
2023-05-14T20:05:10.486Z,17.08
2023-05-14T20:07:40.555Z,17.02
2023-05-14T20:10:09.193Z,16.90
2023-05-14T20:12:36.769Z,16.88
2023-05-14T20:15:04.816Z,16.81
2023-05-14T20:17:32.452Z,16.76
2023-05-14T20:20:00.008Z,16.77
2023-05-14T20:22:27.617Z,16.70
2023-05-14T20:24:56.456Z,16.57
2023-05-14T20:27:24.001Z,16.48
2023-05-14T20:29:53.847Z,16.43
2023-05-14T20:32:24.681Z,16.45
2023-05-14T20:34:52.343Z,16.49
2023-05-14T20:37:20.178Z,16.41
2023-05-14T20:39:47.922Z,16.32
2023-05-14T20:42:16.859Z,16.33
2023-05-14T20:44:44.517Z,16.32
2023-05-14T20:47:16.277Z,16.34
2023-05-14T20:49:44.072Z,16.24
2023-05-14T20:52:11.631Z,16.25
2023-05-14T20:54:39.211Z,16.32
2023-05-14T20:57:07.113Z,16.31
2023-05-14T20:59:36.049Z,16.33
2023-05-14T21:02:03.709Z,16.33
2023-05-14T21:04:31.426Z,16.23
2023-05-14T21:06:59.056Z,16.23
2023-05-14T21:09:27.225Z,16.13
2023-05-14T21:11:55.027Z,16.18
2023-05-14T21:14:22.711Z,16.11
2023-05-14T21:16:51.617Z,16.10
2023-05-14T21:19:19.247Z,16.01
2023-05-14T21:21:47.322Z,15.94
2023-05-14T21:24:16.645Z,15.85
2023-05-14T21:26:44.303Z,15.80
2023-05-14T21:29:11.979Z,15.81
2023-05-14T21:31:39.506Z,15.68
2023-05-14T21:34:08.390Z,15.56
2023-05-14T21:36:36.336Z,15.49
2023-05-14T21:39:03.930Z,15.53
2023-05-14T21:41:32.586Z,15.44
2023-05-14T21:44:00.293Z,15.41
2023-05-14T21:46:28.808Z,15.39
2023-05-14T21:48:56.509Z,15.33
2023-05-14T21:51:25.472Z,15.19
2023-05-14T21:53:53.020Z,15.09
2023-05-14T21:56:21.043Z,15.02
2023-05-14T21:58:48.648Z,14.97
2023-05-14T22:01:16.282Z,14.97
2023-05-14T22:03:43.896Z,14.87
2023-05-14T22:06:11.533Z,14.81
2023-05-14T22:08:40.519Z,14.77
2023-05-14T22:11:08.067Z,14.69
2023-05-14T22:13:40.581Z,14.68
2023-05-14T22:16:13.195Z,14.69
2023-05-14T22:18:41.548Z,14.68
2023-05-14T22:21:09.185Z,14.74
2023-05-14T22:23:37.430Z,14.72
2023-05-14T22:26:06.518Z,14.86
2023-05-14T22:28:34.033Z,14.77
2023-05-14T22:31:01.608Z,14.74
2023-05-14T22:33:29.166Z,14.70
2023-05-14T22:35:56.707Z,14.67
2023-05-14T22:38:24.318Z,14.66
2023-05-14T22:40:51.815Z,14.64
2023-05-14T22:43:20.661Z,14.67
2023-05-14T22:45:48.200Z,14.57
2023-05-14T22:48:15.736Z,14.56
2023-05-14T22:50:43.370Z,14.49
2023-05-14T22:53:10.957Z,14.53
2023-05-14T22:55:38.519Z,14.55
2023-05-14T22:58:06.116Z,14.52
2023-05-14T23:00:35.014Z,14.58
2023-05-14T23:03:02.574Z,14.48
2023-05-14T23:05:30.648Z,14.45
2023-05-14T23:07:58.257Z,14.47
2023-05-14T23:10:25.775Z,14.51
2023-05-14T23:12:53.317Z,14.35
2023-05-14T23:15:20.801Z,14.22
2023-05-14T23:17:49.825Z,14.24
2023-05-14T23:20:17.442Z,14.18
2023-05-14T23:22:44.990Z,14.18
2023-05-14T23:25:12.522Z,14.09
2023-05-14T23:27:40.290Z,13.96
2023-05-14T23:30:09.015Z,13.88
2023-05-14T23:32:36.557Z,13.83
2023-05-14T23:35:06.308Z,13.82
2023-05-14T23:37:36.636Z,13.78
2023-05-14T23:40:04.762Z,13.81
2023-05-14T23:42:32.259Z,13.77
2023-05-14T23:44:59.818Z,13.69
2023-05-14T23:47:27.429Z,13.71
2023-05-14T23:49:54.993Z,13.64
2023-05-14T23:52:23.858Z,13.54
2023-05-14T23:54:51.413Z,13.36
2023-05-14T23:57:19.069Z,13.22
2023-05-14T23:59:46.670Z,13.15
